createdAt,value
2023-05-15T00:02:08.835Z,98661.84
2023-05-15T00:04:55.548Z,98658.41
2023-05-15T00:07:42.692Z,98639.50
2023-05-15T00:10:28.969Z,98641.22
2023-05-15T00:13:18.576Z,98662.72
2023-05-15T00:16:07.788Z,98646.38
2023-05-15T00:18:54.372Z,98638.66
2023-05-15T00:21:40.523Z,98642.06
2023-05-15T00:24:26.750Z,98642.94
2023-05-15T00:27:12.911Z,98655.84
2023-05-15T00:29:59.428Z,98640.41
2023-05-15T00:32:45.706Z,98630.91
2023-05-15T00:35:32.667Z,98596.50
2023-05-15T00:38:18.973Z,98558.72
2023-05-15T00:41:07.539Z,98640.41
2023-05-15T00:43:55.817Z,98624.03
2023-05-15T00:46:45.450Z,98630.06
2023-05-15T00:49:35.309Z,98631.75
2023-05-15T00:52:22.775Z,98628.34
2023-05-15T00:55:09.561Z,98649.88
2023-05-15T00:57:57.631Z,98658.47
2023-05-15T01:00:47.188Z,98652.41
2023-05-15T01:03:33.594Z,98630.91
2023-05-15T01:06:20.104Z,98634.34
2023-05-15T01:09:08.320Z,98648.97
2023-05-15T01:11:57.366Z,98646.34
2023-05-15T01:14:43.742Z,98660.13
2023-05-15T01:17:31.096Z,98660.09
2023-05-15T01:20:18.782Z,98646.34
2023-05-15T01:23:43.712Z,98666.88
2023-05-15T01:27:27.337Z,98659.94
2023-05-15T01:30:28.820Z,98663.41
2023-05-15T01:33:26.651Z,98650.53
2023-05-15T01:36:24.611Z,98659.13
2023-05-15T01:39:11.498Z,98656.56
2023-05-15T01:42:03.959Z,98635.94
2023-05-15T01:44:54.691Z,98657.44
2023-05-15T01:47:46.339Z,98651.41
2023-05-15T01:50:34.791Z,98630.81
2023-05-15T01:53:21.220Z,98632.56
2023-05-15T01:56:09.896Z,98649.75
2023-05-15T01:58:57.233Z,98653.22
2023-05-15T02:01:45.899Z,98627.44
2023-05-15T02:04:33.976Z,98659.28
2023-05-15T02:07:20.878Z,98624.03
2023-05-15T02:10:09.287Z,98642.94
2023-05-15T02:12:56.510Z,98654.13
2023-05-15T02:15:43.459Z,98640.34
2023-05-15T02:18:30.202Z,98654.09
2023-05-15T02:21:17.452Z,98629.16
2023-05-15T02:24:04.089Z,98654.91
2023-05-15T02:26:56.531Z,98654.06
2023-05-15T02:30:01.628Z,98651.47
2023-05-15T02:33:18.515Z,98645.44
2023-05-15T02:36:11.334Z,98652.34
2023-05-15T02:38:59.361Z,98656.56
2023-05-15T02:41:46.985Z,98656.56
2023-05-15T02:44:37.177Z,98649.63
2023-05-15T02:47:24.278Z,98648.75
2023-05-15T02:50:10.909Z,98642.72
2023-05-15T02:53:04.791Z,98650.53
2023-05-15T02:55:51.179Z,98635.97
2023-05-15T02:58:38.610Z,98623.06
2023-05-15T03:01:24.829Z,98647.16
2023-05-15T03:04:11.036Z,98645.41
2023-05-15T03:06:57.511Z,98649.69
2023-05-15T03:09:43.962Z,98659.13
2023-05-15T03:12:30.293Z,98647.06
2023-05-15T03:15:16.771Z,98631.56
2023-05-15T03:18:03.115Z,98643.56
2023-05-15T03:20:52.527Z,98645.25
2023-05-15T03:23:38.880Z,98643.56
2023-05-15T03:26:25.642Z,98615.25
2023-05-15T03:29:13.256Z,98623.81
2023-05-15T03:31:59.713Z,98633.25
2023-05-15T03:34:46.164Z,98630.69
2023-05-15T03:37:32.892Z,98634.13
2023-05-15T03:40:19.051Z,98625.59
2023-05-15T03:43:06.516Z,98628.13
2023-05-15T03:45:52.993Z,98644.47
2023-05-15T03:48:39.221Z,98629.75
2023-05-15T03:51:25.692Z,98651.25
2023-05-15T03:54:13.474Z,98638.38
2023-05-15T03:57:00.888Z,98644.38
2023-05-15T03:59:47.351Z,98643.47
2023-05-15T04:02:33.733Z,98629.75
2023-05-15T04:05:21.766Z,98647.75
2023-05-15T04:08:10.057Z,98646.00
2023-05-15T04:10:56.373Z,98634.75
2023-05-15T04:13:42.546Z,98646.69
2023-05-15T04:16:29.098Z,98626.81
2023-05-15T04:19:15.713Z,98636.25
2023-05-15T04:22:01.974Z,98645.63
2023-05-15T04:24:48.405Z,98652.53
2023-05-15T04:27:36.380Z,98641.19
2023-05-15T04:30:22.861Z,98630.03
2023-05-15T04:33:09.121Z,98651.47
2023-05-15T04:35:55.432Z,98635.13
2023-05-15T04:38:42.192Z,98636.75
2023-05-15T04:41:28.812Z,98633.22
2023-05-15T04:44:15.118Z,98586.81
2023-05-15T04:47:01.382Z,98643.25
2023-05-15T04:49:50.551Z,98644.03
2023-05-15T04:52:37.237Z,98641.44
2023-05-15T04:55:23.821Z,98644.66
2023-05-15T04:58:10.625Z,98639.31
2023-05-15T05:00:56.768Z,98645.06
2023-05-15T05:03:43.259Z,98635.19
2023-05-15T05:06:30.541Z,98644.31
2023-05-15T05:09:19.219Z,98644.69
2023-05-15T05:12:07.397Z,98637.28
2023-05-15T05:14:53.471Z,98629.03
2023-05-15T05:17:39.718Z,98645.63
2023-05-15T05:20:26.427Z,98643.59
2023-05-15T05:23:14.761Z,98650.09
2023-05-15T05:26:01.060Z,98651.19
2023-05-15T05:28:47.861Z,98630.22
2023-05-15T05:31:34.080Z,98647.25
2023-05-15T05:34:20.577Z,98655.66
2023-05-15T05:37:06.748Z,98647.78
2023-05-15T05:39:54.744Z,98616.66
2023-05-15T05:42:41.259Z,98646.78
2023-05-15T05:45:28.137Z,98630.53
2023-05-15T05:48:14.515Z,98651.00
2023-05-15T05:51:00.815Z,98650.50
2023-05-15T05:53:46.973Z,98661.22
2023-05-15T05:56:33.317Z,98649.59
2023-05-15T05:59:19.612Z,98638.72
2023-05-15T06:02:06.241Z,98623.28
2023-05-15T06:04:53.295Z,98652.53
2023-05-15T06:07:40.065Z,98650.13
2023-05-15T06:10:27.103Z,98655.00
2023-05-15T06:13:14.838Z,98656.41
2023-05-15T06:16:01.437Z,98656.72
2023-05-15T06:18:48.014Z,98633.28
2023-05-15T06:21:34.260Z,98629.31
2023-05-15T06:24:20.607Z,98642.63
2023-05-15T06:27:07.164Z,98626.91
2023-05-15T06:29:53.648Z,98643.88
2023-05-15T06:32:41.759Z,98654.56
2023-05-15T06:35:28.435Z,98642.13
2023-05-15T06:38:14.656Z,98664.97
2023-05-15T06:41:09.757Z,98651.03
2023-05-15T06:43:56.163Z,98648.44
2023-05-15T06:46:42.578Z,98659.00
2023-05-15T06:49:28.715Z,98662.59
2023-05-15T06:52:15.297Z,98662.47
2023-05-15T06:55:01.784Z,98657.03
2023-05-15T06:57:48.141Z,98647.28
2023-05-15T07:00:34.591Z,98660.66
2023-05-15T07:03:21.393Z,98654.44
2023-05-15T07:06:07.627Z,98664.41
2023-05-15T07:08:54.000Z,98650.66
2023-05-15T07:11:42.095Z,98660.53
2023-05-15T07:14:28.598Z,98665.75
2023-05-15T07:17:14.849Z,98648.94
2023-05-15T07:20:01.793Z,98652.53
2023-05-15T07:22:56.505Z,98649.50
2023-05-15T07:25:44.690Z,98664.69
2023-05-15T07:28:32.404Z,98638.31
2023-05-15T07:31:20.532Z,98653.53
2023-05-15T07:34:07.002Z,98649.56
2023-05-15T07:36:53.186Z,98653.34
2023-05-15T07:39:39.610Z,98633.81
2023-05-15T07:42:26.125Z,98663.91
2023-05-15T07:45:12.243Z,98633.38
2023-05-15T07:47:59.090Z,98646.78
2023-05-15T07:50:46.830Z,98661.22
2023-05-15T07:53:33.270Z,98628.53
2023-05-15T07:56:19.414Z,98651.28
2023-05-15T07:59:06.788Z,98629.25
2023-05-15T08:01:53.206Z,98648.13
2023-05-15T08:04:39.974Z,98655.69
2023-05-15T08:07:26.670Z,98626.75
2023-05-15T08:10:12.882Z,98627.56
2023-05-15T08:12:59.131Z,98638.50
2023-05-15T08:15:45.438Z,98632.97
2023-05-15T08:18:31.870Z,98609.34
2023-05-15T08:21:18.669Z,98645.03
2023-05-15T08:24:05.506Z,98648.41
2023-05-15T08:26:51.979Z,98649.78
2023-05-15T08:29:39.756Z,98661.56
2023-05-15T08:32:27.239Z,98656.13
2023-05-15T08:35:13.586Z,98632.75
2023-05-15T08:37:59.903Z,98643.09
2023-05-15T08:40:47.309Z,98661.94
2023-05-15T08:43:36.630Z,98643.28
2023-05-15T08:46:23.647Z,98626.09
2023-05-15T08:49:26.755Z,98621.50
2023-05-15T08:52:13.379Z,98597.75
2023-05-15T08:55:00.956Z,98659.38
2023-05-15T08:57:48.901Z,98654.19
2023-05-15T09:00:36.032Z,98642.25
2023-05-15T09:03:23.408Z,98654.25
2023-05-15T09:06:10.512Z,98643.00
2023-05-15T09:08:58.211Z,98643.81
2023-05-15T09:11:45.549Z,98591.13
2023-05-15T09:14:31.800Z,98593.03
2023-05-15T09:17:18.056Z,98593.00
2023-05-15T09:20:08.519Z,98570.56
2023-05-15T09:22:56.020Z,98628.94
2023-05-15T09:25:47.049Z,98600.44
2023-05-15T09:28:33.875Z,98598.84
2023-05-15T09:31:21.816Z,98583.25
2023-05-15T09:34:10.098Z,98622.22
2023-05-15T09:36:56.696Z,98637.47
2023-05-15T09:39:44.269Z,98617.88
2023-05-15T09:42:34.841Z,98576.16
2023-05-15T09:45:21.356Z,98471.31
2023-05-15T09:48:08.676Z,98602.53
2023-05-15T09:50:56.889Z,98603.00
2023-05-15T09:53:48.097Z,98602.69
2023-05-15T09:56:34.503Z,98473.88
2023-05-15T09:59:24.391Z,98550.41
2023-05-15T10:02:14.708Z,98600.72
2023-05-15T10:05:01.325Z,98572.22
2023-05-15T10:07:54.505Z,98562.66
2023-05-15T10:10:41.996Z,98594.16
2023-05-15T10:13:31.831Z,98586.84
2023-05-15T10:16:21.349Z,98554.94
2023-05-15T10:19:10.133Z,98565.75
2023-05-15T10:21:59.744Z,98572.28
2023-05-15T10:24:48.783Z,98568.66
2023-05-15T10:27:37.428Z,98551.00
2023-05-15T10:30:25.041Z,98549.34
2023-05-15T10:33:13.331Z,98574.22
2023-05-15T10:36:00.327Z,98559.97
2023-05-15T10:38:48.191Z,98514.88
2023-05-15T10:41:39.553Z,98552.97
2023-05-15T10:44:25.780Z,98541.56
2023-05-15T10:47:12.279Z,98532.38
2023-05-15T10:49:59.434Z,98531.00
2023-05-15T10:52:46.165Z,98514.34
2023-05-15T10:55:33.136Z,98505.22
2023-05-15T10:58:23.933Z,98506.09
2023-05-15T11:01:28.339Z,98530.25
2023-05-15T11:04:17.161Z,98537.94
2023-05-15T11:07:15.557Z,98504.78
2023-05-15T11:10:28.028Z,98522.06
2023-05-15T11:13:14.488Z,98506.84
2023-05-15T11:16:00.909Z,98512.41
2023-05-15T11:18:47.233Z,98492.56
2023-05-15T11:21:33.495Z,98523.31
2023-05-15T11:24:19.790Z,98500.81
2023-05-15T11:27:06.073Z,98507.03
2023-05-15T11:30:08.004Z,98524.31
2023-05-15T11:33:10.160Z,98483.88
2023-05-15T11:36:00.681Z,98512.19
2023-05-15T11:38:50.880Z,98476.22
2023-05-15T11:41:37.655Z,98483.53
2023-05-15T11:44:24.565Z,98508.69
2023-05-15T11:47:11.507Z,98461.16
2023-05-15T11:49:58.278Z,98513.34
2023-05-15T11:52:45.160Z,98489.69
2023-05-15T11:55:33.285Z,98480.41
2023-05-15T11:58:21.688Z,98475.84
2023-05-15T12:01:11.831Z,98480.31
2023-05-15T12:03:58.225Z,98477.34
2023-05-15T12:06:47.412Z,98477.88
2023-05-15T12:09:34.138Z,98460.31
2023-05-15T12:12:20.775Z,98450.53
2023-05-15T12:15:15.418Z,98491.34
2023-05-15T12:18:04.094Z,98462.50
2023-05-15T12:20:53.109Z,98493.13
2023-05-15T12:23:39.828Z,98477.81
2023-05-15T12:26:28.161Z,98480.72
2023-05-15T12:29:15.531Z,98485.78
2023-05-15T12:32:02.122Z,98440.09
2023-05-15T12:34:49.128Z,98485.47
2023-05-15T12:37:36.350Z,98481.19
2023-05-15T12:40:23.451Z,98459.44
2023-05-15T12:43:10.844Z,98476.28
2023-05-15T12:45:58.315Z,98471.63
2023-05-15T12:48:44.885Z,98488.19
2023-05-15T12:51:32.130Z,98491.91
2023-05-15T12:54:20.128Z,98464.41
2023-05-15T12:57:06.474Z,98470.09
2023-05-15T12:59:52.844Z,98483.66
2023-05-15T13:02:39.324Z,98451.47
2023-05-15T13:05:27.108Z,98488.94
2023-05-15T13:08:18.175Z,98492.84
2023-05-15T13:11:04.528Z,98487.25
2023-05-15T13:13:50.744Z,98439.59
2023-05-15T13:16:36.940Z,98456.75
2023-05-15T13:19:23.519Z,98467.22
2023-05-15T13:22:09.713Z,98450.91
2023-05-15T13:24:56.831Z,98485.91
2023-05-15T13:27:43.489Z,98456.44
2023-05-15T13:30:30.693Z,98470.00
2023-05-15T13:33:17.036Z,98443.66
2023-05-15T13:36:03.744Z,98476.00
2023-05-15T13:38:49.933Z,98488.53
2023-05-15T13:41:36.729Z,98476.53
2023-05-15T13:44:23.072Z,98436.59
2023-05-15T13:47:09.308Z,98464.59
2023-05-15T13:49:55.756Z,98445.63
2023-05-15T13:52:43.298Z,98470.41
2023-05-15T13:55:29.783Z,98419.81
2023-05-15T13:58:16.618Z,98444.13
2023-05-15T14:01:06.635Z,98452.78
2023-05-15T14:03:54.029Z,98440.47
2023-05-15T14:06:40.756Z,98458.75
2023-05-15T14:09:28.205Z,98449.53
2023-05-15T14:12:14.787Z,98467.72
2023-05-15T14:15:01.179Z,98433.78
2023-05-15T14:17:48.677Z,98467.31
2023-05-15T14:20:35.428Z,98474.59
2023-05-15T14:23:21.624Z,98472.50
2023-05-15T14:26:08.195Z,98459.84
2023-05-15T14:28:55.495Z,98487.22
2023-05-15T14:31:43.125Z,98504.94
2023-05-15T14:34:30.406Z,98507.34
2023-05-15T14:37:18.025Z,98515.91
2023-05-15T14:40:05.030Z,98512.41
2023-05-15T14:42:51.662Z,98496.25
2023-05-15T14:45:38.207Z,98521.22
2023-05-15T14:48:24.739Z,98517.91
2023-05-15T14:51:11.341Z,98497.81
2023-05-15T14:53:57.892Z,98509.47
2023-05-15T14:56:44.469Z,98544.81
2023-05-15T14:59:30.857Z,98544.16
2023-05-15T15:02:17.476Z,98549.09
2023-05-15T15:05:04.521Z,98520.59
2023-05-15T15:08:00.687Z,98545.28
2023-05-15T15:10:46.948Z,98551.94
2023-05-15T15:13:33.037Z,98557.13
2023-05-15T15:16:19.260Z,98564.97
2023-05-15T15:19:05.956Z,98566.94
2023-05-15T15:21:53.786Z,98539.66
2023-05-15T15:24:40.367Z,98552.34
2023-05-15T15:27:27.505Z,98556.81
2023-05-15T15:30:14.600Z,98571.78
2023-05-15T15:33:01.227Z,98599.81
2023-05-15T15:35:47.397Z,98586.09
2023-05-15T15:38:33.945Z,98593.84
2023-05-15T15:41:21.375Z,98584.66
2023-05-15T15:44:08.096Z,98604.22
2023-05-15T15:46:54.237Z,98603.13
2023-05-15T15:49:41.591Z,98547.66
2023-05-15T15:52:28.069Z,98546.72
2023-05-15T15:55:14.596Z,98603.53
2023-05-15T15:58:00.694Z,98589.19
2023-05-15T16:00:47.244Z,98574.47
2023-05-15T16:03:33.630Z,98573.38
2023-05-15T16:06:20.325Z,98563.72
2023-05-15T16:09:07.221Z,98566.50
2023-05-15T16:11:53.884Z,98523.41
2023-05-15T16:14:40.640Z,98533.75
2023-05-15T16:17:26.851Z,98572.53
2023-05-15T16:20:13.192Z,98565.44
2023-05-15T16:22:59.484Z,98557.63
2023-05-15T16:25:45.926Z,98582.38
2023-05-15T16:28:32.337Z,98593.38
2023-05-15T16:31:18.858Z,98577.66
2023-05-15T16:34:05.590Z,98588.00
2023-05-15T16:36:51.993Z,98580.44
2023-05-15T16:39:41.254Z,98564.75
2023-05-15T16:42:28.453Z,98565.16
2023-05-15T16:45:14.717Z,98563.22
2023-05-15T16:48:01.170Z,98551.13
2023-05-15T16:50:47.704Z,98572.28
2023-05-15T16:53:34.335Z,98549.31
2023-05-15T16:56:20.830Z,98553.72
2023-05-15T16:59:07.400Z,98541.84
2023-05-15T17:01:53.644Z,98555.63
2023-05-15T17:04:39.945Z,98568.41
2023-05-15T17:07:26.253Z,98592.31
2023-05-15T17:10:13.238Z,98585.13
2023-05-15T17:12:59.709Z,98584.25
2023-05-15T17:15:47.139Z,98610.31
2023-05-15T17:18:33.431Z,98598.31
2023-05-15T17:21:19.816Z,98582.41
2023-05-15T17:24:06.166Z,98609.25
2023-05-15T17:26:52.821Z,98607.03
2023-05-15T17:29:39.222Z,98588.84
2023-05-15T17:32:25.588Z,98607.53
2023-05-15T17:35:12.013Z,98620.63
2023-05-15T17:37:58.202Z,98630.72
2023-05-15T17:40:44.645Z,98619.59
2023-05-15T17:43:30.974Z,98604.09
2023-05-15T17:46:17.521Z,98609.75
2023-05-15T17:49:04.085Z,98616.34
2023-05-15T17:51:50.979Z,98614.78
2023-05-15T17:54:37.570Z,98608.25
2023-05-15T17:57:23.759Z,98638.41
2023-05-15T18:00:10.935Z,98607.06
2023-05-15T18:03:01.191Z,98638.66
2023-05-15T18:05:47.772Z,98627.00
2023-05-15T18:08:34.040Z,98614.44
2023-05-15T18:11:22.371Z,98612.25
2023-05-15T18:14:09.516Z,98619.44
2023-05-15T18:16:56.172Z,98602.53
2023-05-15T18:19:44.749Z,98626.34
2023-05-15T18:22:31.415Z,98625.78
2023-05-15T18:25:18.280Z,98647.41
2023-05-15T18:28:04.704Z,98645.84
2023-05-15T18:30:51.157Z,98631.22
2023-05-15T18:33:38.161Z,98635.75
2023-05-15T18:36:24.321Z,98612.78
2023-05-15T18:39:10.977Z,98647.16
2023-05-15T18:41:57.072Z,98625.72
2023-05-15T18:44:46.775Z,98643.00
2023-05-15T18:47:33.511Z,98640.44
2023-05-15T18:50:20.710Z,98653.34
2023-05-15T18:53:07.175Z,98648.31
2023-05-15T18:55:53.506Z,98660.53
2023-05-15T18:58:39.758Z,98637.50
2023-05-15T19:01:26.021Z,98650.44
2023-05-15T19:04:12.672Z,98652.22
2023-05-15T19:06:58.956Z,98625.75
2023-05-15T19:09:45.424Z,98601.84
2023-05-15T19:12:31.662Z,98673.03
2023-05-15T19:15:19.096Z,98659.47
2023-05-15T19:18:06.005Z,98678.81
2023-05-15T19:20:54.130Z,98686.97
2023-05-15T19:23:40.497Z,98699.00
2023-05-15T19:26:28.486Z,98666.38
2023-05-15T19:29:14.828Z,98674.34
2023-05-15T19:32:02.925Z,98696.72
2023-05-15T19:34:49.955Z,98678.84
2023-05-15T19:37:36.409Z,98689.69
2023-05-15T19:40:22.866Z,98687.09
2023-05-15T19:43:11.314Z,98687.38
2023-05-15T19:45:58.024Z,98676.44
2023-05-15T19:48:45.023Z,98711.72
2023-05-15T19:51:31.604Z,98690.41
2023-05-15T19:54:18.008Z,98694.78
2023-05-15T19:57:04.712Z,98697.22
2023-05-15T19:59:51.569Z,98706.03
2023-05-15T20:02:37.900Z,98714.69
2023-05-15T20:05:24.531Z,98721.63
2023-05-15T20:08:11.137Z,98707.84
2023-05-15T20:10:57.894Z,98729.19
2023-05-15T20:13:44.160Z,98706.03
2023-05-15T20:16:30.555Z,98699.19
2023-05-15T20:19:17.035Z,98714.78
2023-05-15T20:22:03.962Z,98709.59
2023-05-15T20:24:50.370Z,98728.66
2023-05-15T20:27:37.154Z,98714.03
2023-05-15T20:30:24.236Z,98732.03
2023-05-15T20:33:11.502Z,98729.50
2023-05-15T20:35:58.220Z,98724.31
2023-05-15T20:38:44.973Z,98721.91
2023-05-15T20:41:31.648Z,98719.41
2023-05-15T20:44:17.817Z,98712.63
2023-05-15T20:47:04.983Z,98743.63
2023-05-15T20:49:51.500Z,98689.66
2023-05-15T20:52:38.092Z,98746.28
2023-05-15T20:55:24.622Z,98751.44
2023-05-15T20:58:11.115Z,98746.06
2023-05-15T21:01:00.704Z,98725.31
2023-05-15T21:03:47.044Z,98736.69
2023-05-15T21:06:33.674Z,98746.16
2023-05-15T21:09:19.953Z,98738.31
2023-05-15T21:12:06.626Z,98734.88
2023-05-15T21:14:53.443Z,98730.56
2023-05-15T21:17:40.262Z,98735.94
2023-05-15T21:20:27.106Z,98723.84
2023-05-15T21:23:14.033Z,98717.88
2023-05-15T21:26:00.577Z,98693.84
2023-05-15T21:28:46.782Z,98746.34
2023-05-15T21:31:33.195Z,98721.44
2023-05-15T21:34:20.224Z,98729.94
2023-05-15T21:37:06.854Z,98702.56
2023-05-15T21:39:53.410Z,98732.53
2023-05-15T21:42:39.702Z,98744.63
2023-05-15T21:45:25.884Z,98734.28
2023-05-15T21:48:12.624Z,98744.72
2023-05-15T21:50:58.848Z,98721.53
2023-05-15T21:53:45.618Z,98737.84
2023-05-15T21:56:32.205Z,98729.31
2023-05-15T21:59:18.467Z,98738.66
2023-05-15T22:02:05.119Z,98716.28
2023-05-15T22:04:51.901Z,98736.16
2023-05-15T22:07:38.289Z,98709.41
2023-05-15T22:10:24.935Z,98716.13
2023-05-15T22:13:11.637Z,98727.47
2023-05-15T22:15:57.921Z,98716.25
2023-05-15T22:18:45.188Z,98732.72
2023-05-15T22:21:32.707Z,98718.16
2023-05-15T22:24:19.088Z,98715.63
2023-05-15T22:27:05.500Z,98749.16
2023-05-15T22:29:51.884Z,98737.97
2023-05-15T22:32:38.375Z,98731.94
2023-05-15T22:35:24.895Z,98730.22
2023-05-15T22:38:11.291Z,98744.78
2023-05-15T22:40:57.721Z,98734.53
2023-05-15T22:43:44.246Z,98748.19
2023-05-15T22:46:30.857Z,98742.97
2023-05-15T22:49:23.364Z,98740.41
2023-05-15T22:52:11.606Z,98744.66
2023-05-15T22:54:59.488Z,98738.66
2023-05-15T22:57:45.877Z,98730.94
2023-05-15T23:00:33.238Z,98746.34
2023-05-15T23:03:19.499Z,98705.97
2023-05-15T23:06:06.271Z,98721.50
2023-05-15T23:08:52.798Z,98679.47
2023-05-15T23:11:39.174Z,98701.69
2023-05-15T23:14:25.821Z,98727.44
2023-05-15T23:17:12.573Z,98749.81
2023-05-15T23:19:59.058Z,98743.72
2023-05-15T23:22:45.282Z,98741.22
2023-05-15T23:25:31.658Z,98727.56
2023-05-15T23:28:18.278Z,98735.41
2023-05-15T23:31:04.708Z,98742.31
2023-05-15T23:33:51.640Z,98724.31
2023-05-15T23:36:37.727Z,98720.06
2023-05-15T23:39:23.923Z,98741.47
2023-05-15T23:42:12.255Z,98744.88
2023-05-15T23:44:58.706Z,98741.47
2023-05-15T23:47:46.580Z,98710.63
2023-05-15T23:50:33.075Z,98718.34
2023-05-15T23:53:19.206Z,98735.53
2023-05-15T23:56:06.348Z,98721.00
2023-05-15T23:58:52.905Z,98740.81
